sensor_id;sensor_type;location;lat;lon;timestamp;P1;durP1;ratioP1;P2;durP2;ratioP2
57800;SDS011;43627;42.728;23.256;2023-01-29T00:02:05;22.02;;;8.57;;
57800;SDS011;43627;42.728;23.256;2023-01-29T00:04:32;19.67;;;10.00;;
57800;SDS011;43627;42.728;23.256;2023-01-29T00:06:58;18.77;;;8.95;;
57800;SDS011;43627;42.728;23.256;2023-01-29T00:09:26;19.13;;;8.63;;
57800;SDS011;43627;42.728;23.256;2023-01-29T00:11:53;22.10;;;9.55;;
57800;SDS011;43627;42.728;23.256;2023-01-29T00:14:20;17.40;;;8.23;;
57800;SDS011;43627;42.728;23.256;2023-01-29T00:16:46;18.77;;;9.40;;
57800;SDS011;43627;42.728;23.256;2023-01-29T00:19:13;21.90;;;10.63;;
57800;SDS011;43627;42.728;23.256;2023-01-29T00:21:40;19.13;;;8.73;;
57800;SDS011;43627;42.728;23.256;2023-01-29T00:24:06;15.77;;;7.40;;
57800;SDS011;43627;42.728;23.256;2023-01-29T00:26:33;17.58;;;8.80;;
57800;SDS011;43627;42.728;23.256;2023-01-29T00:29:00;17.95;;;8.82;;
57800;SDS011;43627;42.728;23.256;2023-01-29T00:31:28;16.95;;;8.55;;
57800;SDS011;43627;42.728;23.256;2023-01-29T00:33:55;19.08;;;10.05;;
57800;SDS011;43627;42.728;23.256;2023-01-29T00:36:22;20.42;;;10.07;;
57800;SDS011;43627;42.728;23.256;2023-01-29T00:38:54;20.45;;;9.38;;
57800;SDS011;43627;42.728;23.256;2023-01-29T00:41:27;16.95;;;8.00;;
57800;SDS011;43627;42.728;23.256;2023-01-29T00:44:15;15.63;;;8.77;;
57800;SDS011;43627;42.728;23.256;2023-01-29T00:47:01;16.63;;;7.97;;
57800;SDS011;43627;42.728;23.256;2023-01-29T00:49:28;17.08;;;9.38;;
57800;SDS011;43627;42.728;23.256;2023-01-29T00:51:58;19.10;;;8.70;;
57800;SDS011;43627;42.728;23.256;2023-01-29T00:54:43;14.10;;;8.02;;
57800;SDS011;43627;42.728;23.256;2023-01-29T00:57:09;20.25;;;8.73;;
57800;SDS011;43627;42.728;23.256;2023-01-29T00:59:36;17.25;;;8.90;;
57800;SDS011;43627;42.728;23.256;2023-01-29T01:02:03;15.68;;;8.60;;
57800;SDS011;43627;42.728;23.256;2023-01-29T01:04:48;16.75;;;7.63;;
57800;SDS011;43627;42.728;23.256;2023-01-29T01:07:14;21.10;;;8.10;;
57800;SDS011;43627;42.728;23.256;2023-01-29T01:09:41;16.60;;;9.05;;
57800;SDS011;43627;42.728;23.256;2023-01-29T01:12:26;14.85;;;7.43;;
57800;SDS011;43627;42.728;23.256;2023-01-29T01:14:53;13.50;;;7.10;;
57800;SDS011;43627;42.728;23.256;2023-01-29T01:17:20;15.88;;;7.80;;
57800;SDS011;43627;42.728;23.256;2023-01-29T01:19:47;16.45;;;7.85;;
57800;SDS011;43627;42.728;23.256;2023-01-29T01:22:14;17.40;;;7.75;;
57800;SDS011;43627;42.728;23.256;2023-01-29T01:24:40;13.68;;;7.93;;
57800;SDS011;43627;42.728;23.256;2023-01-29T01:27:07;15.70;;;8.23;;
57800;SDS011;43627;42.728;23.256;2023-01-29T01:29:33;16.98;;;7.15;;
57800;SDS011;43627;42.728;23.256;2023-01-29T01:32:00;15.05;;;7.65;;
57800;SDS011;43627;42.728;23.256;2023-01-29T01:34:27;16.35;;;8.13;;
57800;SDS011;43627;42.728;23.256;2023-01-29T01:36:54;15.68;;;7.68;;
57800;SDS011;43627;42.728;23.256;2023-01-29T01:39:22;13.00;;;6.30;;
57800;SDS011;43627;42.728;23.256;2023-01-29T01:41:50;14.30;;;7.40;;
57800;SDS011;43627;42.728;23.256;2023-01-29T01:50:12;17.02;;;8.07;;
57800;SDS011;43627;42.728;23.256;2023-01-29T01:52:44;15.70;;;8.27;;
57800;SDS011;43627;42.728;23.256;2023-01-29T01:55:15;14.93;;;7.93;;
57800;SDS011;43627;42.728;23.256;2023-01-29T01:57:44;14.60;;;7.50;;
57800;SDS011;43627;42.728;23.256;2023-01-29T02:00:15;16.42;;;8.48;;
57800;SDS011;43627;42.728;23.256;2023-01-29T02:02:45;16.55;;;8.25;;
57800;SDS011;43627;42.728;23.256;2023-01-29T02:05:32;17.33;;;7.72;;
57800;SDS011;43627;42.728;23.256;2023-01-29T02:08:42;19.10;;;9.02;;
57800;SDS011;43627;42.728;23.256;2023-01-29T02:11:28;16.55;;;9.20;;
57800;SDS011;43627;42.728;23.256;2023-01-29T02:13:55;14.68;;;7.53;;
57800;SDS011;43627;42.728;23.256;2023-01-29T02:16:22;17.38;;;7.95;;
57800;SDS011;43627;42.728;23.256;2023-01-29T02:18:49;17.67;;;8.45;;
57800;SDS011;43627;42.728;23.256;2023-01-29T02:21:23;16.20;;;9.10;;
57800;SDS011;43627;42.728;23.256;2023-01-29T02:24:14;16.90;;;9.30;;
57800;SDS011;43627;42.728;23.256;2023-01-29T02:37:53;15.32;;;8.52;;
57800;SDS011;43627;42.728;23.256;2023-01-29T02:40:31;17.27;;;8.40;;
57800;SDS011;43627;42.728;23.256;2023-01-29T02:48:13;16.48;;;8.32;;
57800;SDS011;43627;42.728;23.256;2023-01-29T02:56:11;19.67;;;8.98;;
57800;SDS011;43627;42.728;23.256;2023-01-29T02:58:42;15.52;;;7.43;;
57800;SDS011;43627;42.728;23.256;2023-01-29T03:01:17;19.05;;;8.38;;
57800;SDS011;43627;42.728;23.256;2023-01-29T03:03:56;18.02;;;8.85;;
57800;SDS011;43627;42.728;23.256;2023-01-29T03:06:40;18.45;;;8.70;;
57800;SDS011;43627;42.728;23.256;2023-01-29T03:11:54;16.77;;;7.80;;
57800;SDS011;43627;42.728;23.256;2023-01-29T03:14:32;13.57;;;7.22;;
57800;SDS011;43627;42.728;23.256;2023-01-29T03:17:26;14.50;;;7.82;;
57800;SDS011;43627;42.728;23.256;2023-01-29T03:19:57;15.20;;;7.72;;
57800;SDS011;43627;42.728;23.256;2023-01-29T03:22:25;11.18;;;6.18;;
57800;SDS011;43627;42.728;23.256;2023-01-29T03:24:54;11.95;;;6.80;;
57800;SDS011;43627;42.728;23.256;2023-01-29T03:27:43;12.70;;;6.57;;
57800;SDS011;43627;42.728;23.256;2023-01-29T03:30:37;14.18;;;7.78;;
57800;SDS011;43627;42.728;23.256;2023-01-29T03:33:26;14.90;;;6.75;;
57800;SDS011;43627;42.728;23.256;2023-01-29T03:35:58;11.80;;;6.63;;
57800;SDS011;43627;42.728;23.256;2023-01-29T03:38:30;13.45;;;6.78;;
57800;SDS011;43627;42.728;23.256;2023-01-29T03:41:04;14.85;;;7.25;;
57800;SDS011;43627;42.728;23.256;2023-01-29T03:48:57;11.45;;;6.78;;
57800;SDS011;43627;42.728;23.256;2023-01-29T03:54:06;11.75;;;6.15;;
57800;SDS011;43627;42.728;23.256;2023-01-29T03:57:02;9.27;;;5.93;;
57800;SDS011;43627;42.728;23.256;2023-01-29T04:02:18;12.98;;;5.95;;
57800;SDS011;43627;42.728;23.256;2023-01-29T04:04:53;11.38;;;5.63;;
57800;SDS011;43627;42.728;23.256;2023-01-29T04:07:24;10.07;;;5.43;;
57800;SDS011;43627;42.728;23.256;2023-01-29T04:09:56;9.13;;;5.03;;
57800;SDS011;43627;42.728;23.256;2023-01-29T04:12:28;10.05;;;4.95;;
57800;SDS011;43627;42.728;23.256;2023-01-29T04:15:01;7.85;;;4.72;;
57800;SDS011;43627;42.728;23.256;2023-01-29T04:17:33;9.68;;;5.82;;
57800;SDS011;43627;42.728;23.256;2023-01-29T04:20:05;8.73;;;5.00;;
57800;SDS011;43627;42.728;23.256;2023-01-29T04:22:36;11.25;;;5.88;;
57800;SDS011;43627;42.728;23.256;2023-01-29T04:25:05;11.40;;;5.72;;
57800;SDS011;43627;42.728;23.256;2023-01-29T04:46:45;11.63;;;6.20;;
57800;SDS011;43627;42.728;23.256;2023-01-29T04:51:57;10.23;;;6.18;;
57800;SDS011;43627;42.728;23.256;2023-01-29T04:57:15;12.65;;;5.95;;
57800;SDS011;43627;42.728;23.256;2023-01-29T04:59:50;9.57;;;6.22;;
57800;SDS011;43627;42.728;23.256;2023-01-29T05:02:40;12.38;;;6.78;;
57800;SDS011;43627;42.728;23.256;2023-01-29T05:05:09;12.48;;;6.03;;
57800;SDS011;43627;42.728;23.256;2023-01-29T05:07:39;9.48;;;5.68;;
57800;SDS011;43627;42.728;23.256;2023-01-29T05:10:09;12.07;;;6.60;;
57800;SDS011;43627;42.728;23.256;2023-01-29T05:12:38;12.57;;;6.35;;
57800;SDS011;43627;42.728;23.256;2023-01-29T05:15:13;15.30;;;6.82;;
57800;SDS011;43627;42.728;23.256;2023-01-29T05:17:44;9.75;;;5.85;;
57800;SDS011;43627;42.728;23.256;2023-01-29T05:20:11;9.98;;;5.93;;
57800;SDS011;43627;42.728;23.256;2023-01-29T05:22:39;11.52;;;6.35;;
57800;SDS011;43627;42.728;23.256;2023-01-29T05:25:18;10.45;;;6.00;;
57800;SDS011;43627;42.728;23.256;2023-01-29T05:27:48;10.40;;;6.18;;
57800;SDS011;43627;42.728;23.256;2023-01-29T05:30:39;9.15;;;5.72;;
57800;SDS011;43627;42.728;23.256;2023-01-29T05:33:19;13.57;;;6.07;;
57800;SDS011;43627;42.728;23.256;2023-01-29T05:35:50;10.68;;;5.50;;
57800;SDS011;43627;42.728;23.256;2023-01-29T05:38:17;9.00;;;5.78;;
57800;SDS011;43627;42.728;23.256;2023-01-29T05:40:44;8.98;;;5.82;;
57800;SDS011;43627;42.728;23.256;2023-01-29T05:43:21;10.77;;;5.45;;
57800;SDS011;43627;42.728;23.256;2023-01-29T05:45:53;14.38;;;6.35;;
57800;SDS011;43627;42.728;23.256;2023-01-29T05:48:21;12.35;;;5.93;;
57800;SDS011;43627;42.728;23.256;2023-01-29T05:50:49;9.05;;;5.32;;
57800;SDS011;43627;42.728;23.256;2023-01-29T05:53:20;14.43;;;6.25;;
57800;SDS011;43627;42.728;23.256;2023-01-29T05:55:46;12.15;;;5.93;;
57800;SDS011;43627;42.728;23.256;2023-01-29T05:58:13;9.55;;;5.40;;
57800;SDS011;43627;42.728;23.256;2023-01-29T06:00:40;11.70;;;6.72;;
57800;SDS011;43627;42.728;23.256;2023-01-29T06:03:07;11.30;;;6.13;;
57800;SDS011;43627;42.728;23.256;2023-01-29T06:05:36;11.02;;;6.68;;
57800;SDS011;43627;42.728;23.256;2023-01-29T06:08:03;17.02;;;6.20;;
57800;SDS011;43627;42.728;23.256;2023-01-29T06:10:30;10.95;;;5.72;;
57800;SDS011;43627;42.728;23.256;2023-01-29T06:12:57;12.13;;;6.20;;
57800;SDS011;43627;42.728;23.256;2023-01-29T06:15:23;11.35;;;6.20;;
57800;SDS011;43627;42.728;23.256;2023-01-29T06:17:55;15.38;;;6.72;;
57800;SDS011;43627;42.728;23.256;2023-01-29T06:20:22;12.27;;;6.97;;
57800;SDS011;43627;42.728;23.256;2023-01-29T06:22:49;12.60;;;7.43;;
57800;SDS011;43627;42.728;23.256;2023-01-29T06:25:16;14.15;;;7.63;;
57800;SDS011;43627;42.728;23.256;2023-01-29T06:27:42;11.70;;;7.47;;
57800;SDS011;43627;42.728;23.256;2023-01-29T06:30:09;14.07;;;7.85;;
57800;SDS011;43627;42.728;23.256;2023-01-29T06:32:36;15.85;;;7.78;;
57800;SDS011;43627;42.728;23.256;2023-01-29T06:35:03;14.52;;;7.10;;
57800;SDS011;43627;42.728;23.256;2023-01-29T06:37:30;16.27;;;8.48;;
57800;SDS011;43627;42.728;23.256;2023-01-29T06:39:57;14.00;;;8.10;;
57800;SDS011;43627;42.728;23.256;2023-01-29T06:42:23;15.48;;;8.10;;
57800;SDS011;43627;42.728;23.256;2023-01-29T06:44:56;16.75;;;8.63;;
57800;SDS011;43627;42.728;23.256;2023-01-29T06:47:23;18.63;;;8.65;;
57800;SDS011;43627;42.728;23.256;2023-01-29T06:49:50;16.95;;;9.45;;
57800;SDS011;43627;42.728;23.256;2023-01-29T06:52:17;20.52;;;10.00;;
57800;SDS011;43627;42.728;23.256;2023-01-29T06:54:44;16.85;;;8.68;;
57800;SDS011;43627;42.728;23.256;2023-01-29T06:57:10;15.38;;;9.00;;
57800;SDS011;43627;42.728;23.256;2023-01-29T06:59:37;17.70;;;9.32;;
57800;SDS011;43627;42.728;23.256;2023-01-29T07:02:04;19.73;;;10.10;;
57800;SDS011;43627;42.728;23.256;2023-01-29T07:04:30;15.13;;;8.18;;
57800;SDS011;43627;42.728;23.256;2023-01-29T07:07:00;16.92;;;8.68;;
57800;SDS011;43627;42.728;23.256;2023-01-29T07:09:26;17.77;;;10.20;;
57800;SDS011;43627;42.728;23.256;2023-01-29T07:11:53;19.35;;;9.88;;
57800;SDS011;43627;42.728;23.256;2023-01-29T07:14:20;16.38;;;8.77;;
57800;SDS011;43627;42.728;23.256;2023-01-29T07:16:47;16.40;;;8.82;;
57800;SDS011;43627;42.728;23.256;2023-01-29T07:19:13;15.38;;;9.65;;
57800;SDS011;43627;42.728;23.256;2023-01-29T07:21:40;14.55;;;7.95;;
57800;SDS011;43627;42.728;23.256;2023-01-29T07:24:07;13.82;;;7.35;;
57800;SDS011;43627;42.728;23.256;2023-01-29T07:26:34;16.85;;;9.77;;
57800;SDS011;43627;42.728;23.256;2023-01-29T07:29:01;19.88;;;9.15;;
57800;SDS011;43627;42.728;23.256;2023-01-29T07:31:30;17.42;;;9.20;;
57800;SDS011;43627;42.728;23.256;2023-01-29T07:34:04;15.35;;;8.63;;
57800;SDS011;43627;42.728;23.256;2023-01-29T07:36:31;17.30;;;9.35;;
57800;SDS011;43627;42.728;23.256;2023-01-29T07:38:57;14.50;;;8.90;;
57800;SDS011;43627;42.728;23.256;2023-01-29T07:41:24;17.23;;;8.40;;
57800;SDS011;43627;42.728;23.256;2023-01-29T07:43:50;21.38;;;8.32;;
57800;SDS011;43627;42.728;23.256;2023-01-29T07:46:17;18.90;;;9.70;;
57800;SDS011;43627;42.728;23.256;2023-01-29T07:48:44;17.60;;;8.70;;
57800;SDS011;43627;42.728;23.256;2023-01-29T07:51:10;17.30;;;9.60;;
57800;SDS011;43627;42.728;23.256;2023-01-29T07:53:37;20.65;;;10.05;;
57800;SDS011;43627;42.728;23.256;2023-01-29T07:56:04;16.95;;;9.27;;
57800;SDS011;43627;42.728;23.256;2023-01-29T07:58:31;18.33;;;8.70;;
57800;SDS011;43627;42.728;23.256;2023-01-29T08:01:03;22.08;;;10.25;;
57800;SDS011;43627;42.728;23.256;2023-01-29T08:03:32;20.17;;;9.68;;
57800;SDS011;43627;42.728;23.256;2023-01-29T08:06:00;21.25;;;9.75;;
57800;SDS011;43627;42.728;23.256;2023-01-29T08:08:26;16.10;;;7.70;;
57800;SDS011;43627;42.728;23.256;2023-01-29T08:10:53;15.98;;;8.23;;
57800;SDS011;43627;42.728;23.256;2023-01-29T08:13:20;21.45;;;11.02;;
57800;SDS011;43627;42.728;23.256;2023-01-29T08:15:46;16.58;;;8.00;;
57800;SDS011;43627;42.728;23.256;2023-01-29T08:18:13;17.35;;;8.20;;
57800;SDS011;43627;42.728;23.256;2023-01-29T08:20:40;15.90;;;8.07;;
57800;SDS011;43627;42.728;23.256;2023-01-29T08:23:09;14.63;;;8.25;;
57800;SDS011;43627;42.728;23.256;2023-01-29T08:25:39;15.18;;;8.70;;
57800;SDS011;43627;42.728;23.256;2023-01-29T08:28:06;20.80;;;9.18;;
57800;SDS011;43627;42.728;23.256;2023-01-29T08:30:34;15.90;;;9.27;;
57800;SDS011;43627;42.728;23.256;2023-01-29T08:33:02;15.95;;;8.45;;
57800;SDS011;43627;42.728;23.256;2023-01-29T08:35:29;16.40;;;8.55;;
57800;SDS011;43627;42.728;23.256;2023-01-29T08:37:57;15.32;;;8.95;;
57800;SDS011;43627;42.728;23.256;2023-01-29T08:40:28;16.77;;;9.15;;
57800;SDS011;43627;42.728;23.256;2023-01-29T08:42:58;16.42;;;8.48;;
57800;SDS011;43627;42.728;23.256;2023-01-29T08:45:31;15.55;;;8.23;;
57800;SDS011;43627;42.728;23.256;2023-01-29T08:47:59;17.27;;;8.98;;
57800;SDS011;43627;42.728;23.256;2023-01-29T08:50:26;17.60;;;8.95;;
57800;SDS011;43627;42.728;23.256;2023-01-29T08:52:58;14.85;;;8.15;;
57800;SDS011;43627;42.728;23.256;2023-01-29T08:55:27;16.90;;;8.90;;
57800;SDS011;43627;42.728;23.256;2023-01-29T08:57:54;14.50;;;8.15;;
57800;SDS011;43627;42.728;23.256;2023-01-29T09:00:22;17.10;;;8.77;;
57800;SDS011;43627;42.728;23.256;2023-01-29T09:02:50;14.75;;;8.30;;
57800;SDS011;43627;42.728;23.256;2023-01-29T09:05:16;19.88;;;9.55;;
57800;SDS011;43627;42.728;23.256;2023-01-29T09:07:44;18.83;;;9.52;;
57800;SDS011;43627;42.728;23.256;2023-01-29T09:10:10;19.65;;;11.60;;
57800;SDS011;43627;42.728;23.256;2023-01-29T09:12:37;22.30;;;11.23;;
57800;SDS011;43627;42.728;23.256;2023-01-29T09:15:04;19.60;;;9.80;;
57800;SDS011;43627;42.728;23.256;2023-01-29T09:17:31;17.17;;;9.70;;
57800;SDS011;43627;42.728;23.256;2023-01-29T09:19:57;21.10;;;11.20;;
57800;SDS011;43627;42.728;23.256;2023-01-29T09:22:24;22.00;;;11.40;;
57800;SDS011;43627;42.728;23.256;2023-01-29T09:24:51;20.20;;;10.38;;
57800;SDS011;43627;42.728;23.256;2023-01-29T09:27:17;21.00;;;11.18;;
57800;SDS011;43627;42.728;23.256;2023-01-29T09:29:44;24.60;;;11.30;;
57800;SDS011;43627;42.728;23.256;2023-01-29T09:32:11;21.90;;;10.23;;
57800;SDS011;43627;42.728;23.256;2023-01-29T09:34:37;16.40;;;8.70;;
57800;SDS011;43627;42.728;23.256;2023-01-29T09:37:04;18.20;;;10.52;;
57800;SDS011;43627;42.728;23.256;2023-01-29T09:39:31;21.73;;;11.05;;
57800;SDS011;43627;42.728;23.256;2023-01-29T09:42:02;18.85;;;9.38;;
57800;SDS011;43627;42.728;23.256;2023-01-29T09:47:26;18.35;;;9.30;;
57800;SDS011;43627;42.728;23.256;2023-01-29T09:49:59;18.13;;;9.77;;
57800;SDS011;43627;42.728;23.256;2023-01-29T09:52:39;21.73;;;10.80;;
57800;SDS011;43627;42.728;23.256;2023-01-29T09:57:56;18.73;;;9.93;;
57800;SDS011;43627;42.728;23.256;2023-01-29T10:00:28;19.58;;;9.32;;
57800;SDS011;43627;42.728;23.256;2023-01-29T10:06:14;19.90;;;10.60;;
57800;SDS011;43627;42.728;23.256;2023-01-29T10:14:18;24.25;;;11.65;;
57800;SDS011;43627;42.728;23.256;2023-01-29T10:22:44;20.52;;;9.70;;
57800;SDS011;43627;42.728;23.256;2023-01-29T10:25:18;21.00;;;10.80;;
57800;SDS011;43627;42.728;23.256;2023-01-29T10:27:50;17.85;;;9.55;;
57800;SDS011;43627;42.728;23.256;2023-01-29T10:30:28;24.55;;;11.13;;
57800;SDS011;43627;42.728;23.256;2023-01-29T10:33:03;22.90;;;12.20;;
57800;SDS011;43627;42.728;23.256;2023-01-29T10:35:33;21.85;;;10.80;;
57800;SDS011;43627;42.728;23.256;2023-01-29T10:38:11;23.45;;;11.93;;
57800;SDS011;43627;42.728;23.256;2023-01-29T10:40:41;27.35;;;13.27;;
57800;SDS011;43627;42.728;23.256;2023-01-29T10:43:18;27.77;;;13.60;;
57800;SDS011;43627;42.728;23.256;2023-01-29T10:51:37;31.48;;;14.13;;
57800;SDS011;43627;42.728;23.256;2023-01-29T11:00:07;26.05;;;13.52;;
57800;SDS011;43627;42.728;23.256;2023-01-29T11:02:45;21.10;;;11.15;;
57800;SDS011;43627;42.728;23.256;2023-01-29T11:05:28;29.67;;;14.00;;
57800;SDS011;43627;42.728;23.256;2023-01-29T11:08:09;25.40;;;12.02;;
57800;SDS011;43627;42.728;23.256;2023-01-29T11:13:46;24.52;;;11.77;;
57800;SDS011;43627;42.728;23.256;2023-01-29T11:16:18;22.20;;;12.27;;
57800;SDS011;43627;42.728;23.256;2023-01-29T11:18:57;21.45;;;11.40;;
57800;SDS011;43627;42.728;23.256;2023-01-29T11:21:27;28.33;;;13.55;;
57800;SDS011;43627;42.728;23.256;2023-01-29T11:24:05;30.33;;;13.35;;
57800;SDS011;43627;42.728;23.256;2023-01-29T11:26:37;30.50;;;14.48;;
57800;SDS011;43627;42.728;23.256;2023-01-29T11:29:24;27.10;;;12.82;;
57800;SDS011;43627;42.728;23.256;2023-01-29T11:31:55;25.55;;;14.07;;
57800;SDS011;43627;42.728;23.256;2023-01-29T11:34:24;26.40;;;14.15;;
57800;SDS011;43627;42.728;23.256;2023-01-29T11:37:00;23.30;;;11.13;;
57800;SDS011;43627;42.728;23.256;2023-01-29T11:39:43;25.98;;;11.38;;
57800;SDS011;43627;42.728;23.256;2023-01-29T11:42:18;26.95;;;12.30;;
57800;SDS011;43627;42.728;23.256;2023-01-29T11:44:46;25.00;;;12.35;;
57800;SDS011;43627;42.728;23.256;2023-01-29T11:50:02;30.98;;;14.02;;
57800;SDS011;43627;42.728;23.256;2023-01-29T11:52:35;26.35;;;11.95;;
57800;SDS011;43627;42.728;23.256;2023-01-29T11:55:05;28.17;;;13.00;;
57800;SDS011;43627;42.728;23.256;2023-01-29T11:57:42;26.33;;;12.98;;
57800;SDS011;43627;42.728;23.256;2023-01-29T12:05:31;25.90;;;12.30;;
57800;SDS011;43627;42.728;23.256;2023-01-29T12:07:59;26.75;;;13.35;;
57800;SDS011;43627;42.728;23.256;2023-01-29T12:13:03;27.58;;;13.30;;
57800;SDS011;43627;42.728;23.256;2023-01-29T12:15:30;30.73;;;13.32;;
57800;SDS011;43627;42.728;23.256;2023-01-29T12:20:33;27.35;;;13.05;;
57800;SDS011;43627;42.728;23.256;2023-01-29T12:26:14;27.88;;;12.85;;
57800;SDS011;43627;42.728;23.256;2023-01-29T12:31:17;25.85;;;12.43;;
57800;SDS011;43627;42.728;23.256;2023-01-29T12:37:20;24.50;;;13.38;;
57800;SDS011;43627;42.728;23.256;2023-01-29T12:42:20;22.63;;;11.68;;
57800;SDS011;43627;42.728;23.256;2023-01-29T12:44:57;25.83;;;12.27;;
57800;SDS011;43627;42.728;23.256;2023-01-29T12:47:31;25.15;;;12.45;;
57800;SDS011;43627;42.728;23.256;2023-01-29T12:50:01;18.10;;;9.93;;
57800;SDS011;43627;42.728;23.256;2023-01-29T12:52:36;21.83;;;11.32;;
57800;SDS011;43627;42.728;23.256;2023-01-29T12:57:46;20.30;;;11.10;;
57800;SDS011;43627;42.728;23.256;2023-01-29T13:00:21;25.13;;;12.00;;
57800;SDS011;43627;42.728;23.256;2023-01-29T13:02:53;21.73;;;12.40;;
57800;SDS011;43627;42.728;23.256;2023-01-29T13:05:26;26.27;;;13.65;;
57800;SDS011;43627;42.728;23.256;2023-01-29T13:08:05;32.15;;;11.90;;
57800;SDS011;43627;42.728;23.256;2023-01-29T13:10:37;27.92;;;13.73;;
57800;SDS011;43627;42.728;23.256;2023-01-29T13:13:13;25.00;;;12.25;;
57800;SDS011;43627;42.728;23.256;2023-01-29T13:15:47;24.27;;;12.35;;
57800;SDS011;43627;42.728;23.256;2023-01-29T13:20:43;20.45;;;10.45;;
57800;SDS011;43627;42.728;23.256;2023-01-29T13:23:17;22.00;;;11.32;;
57800;SDS011;43627;42.728;23.256;2023-01-29T13:25:53;21.98;;;11.68;;
57800;SDS011;43627;42.728;23.256;2023-01-29T13:28:21;22.50;;;10.82;;
57800;SDS011;43627;42.728;23.256;2023-01-29T13:34:19;23.23;;;11.10;;
57800;SDS011;43627;42.728;23.256;2023-01-29T13:36:47;23.27;;;10.77;;
57800;SDS011;43627;42.728;23.256;2023-01-29T13:39:24;21.92;;;11.70;;
57800;SDS011;43627;42.728;23.256;2023-01-29T13:41:54;21.60;;;11.02;;
57800;SDS011;43627;42.728;23.256;2023-01-29T13:44:33;21.80;;;12.57;;
57800;SDS011;43627;42.728;23.256;2023-01-29T13:47:03;26.58;;;12.30;;
57800;SDS011;43627;42.728;23.256;2023-01-29T13:55:19;20.85;;;11.30;;
57800;SDS011;43627;42.728;23.256;2023-01-29T13:57:54;23.65;;;10.85;;
57800;SDS011;43627;42.728;23.256;2023-01-29T14:10:26;22.77;;;12.23;;
57800;SDS011;43627;42.728;23.256;2023-01-29T14:13:24;21.38;;;10.82;;
57800;SDS011;43627;42.728;23.256;2023-01-29T14:15:40;30.35;;;13.38;;
57800;SDS011;43627;42.728;23.256;2023-01-29T14:26:31;25.13;;;11.52;;
57800;SDS011;43627;42.728;23.256;2023-01-29T14:29:23;30.95;;;13.95;;
57800;SDS011;43627;42.728;23.256;2023-01-29T14:34:43;30.58;;;13.10;;
57800;SDS011;43627;42.728;23.256;2023-01-29T14:39:46;37.33;;;15.00;;
57800;SDS011;43627;42.728;23.256;2023-01-29T14:52:57;27.55;;;12.02;;
57800;SDS011;43627;42.728;23.256;2023-01-29T14:55:29;29.92;;;14.77;;
57800;SDS011;43627;42.728;23.256;2023-01-29T14:58:02;30.98;;;13.85;;
57800;SDS011;43627;42.728;23.256;2023-01-29T15:00:30;31.45;;;14.52;;
57800;SDS011;43627;42.728;23.256;2023-01-29T15:03:02;31.25;;;14.05;;
57800;SDS011;43627;42.728;23.256;2023-01-29T15:05:37;30.77;;;15.63;;
57800;SDS011;43627;42.728;23.256;2023-01-29T15:08:06;34.65;;;16.20;;
57800;SDS011;43627;42.728;23.256;2023-01-29T15:13:57;30.70;;;15.52;;
57800;SDS011;43627;42.728;23.256;2023-01-29T15:17:00;25.98;;;11.85;;
57800;SDS011;43627;42.728;23.256;2023-01-29T15:19:36;28.60;;;13.80;;
57800;SDS011;43627;42.728;23.256;2023-01-29T15:22:19;26.88;;;13.25;;
57800;SDS011;43627;42.728;23.256;2023-01-29T15:25:12;25.30;;;12.38;;
57800;SDS011;43627;42.728;23.256;2023-01-29T15:27:40;26.23;;;12.07;;
57800;SDS011;43627;42.728;23.256;2023-01-29T15:30:22;26.52;;;12.65;;
57800;SDS011;43627;42.728;23.256;2023-01-29T15:32:54;29.10;;;13.00;;
57800;SDS011;43627;42.728;23.256;2023-01-29T15:35:29;25.58;;;11.70;;
57800;SDS011;43627;42.728;23.256;2023-01-29T15:38:05;26.48;;;12.02;;
57800;SDS011;43627;42.728;23.256;2023-01-29T15:40:32;20.27;;;9.95;;
57800;SDS011;43627;42.728;23.256;2023-01-29T15:43:00;23.20;;;12.15;;
57800;SDS011;43627;42.728;23.256;2023-01-29T15:45:28;36.60;;;16.27;;
57800;SDS011;43627;42.728;23.256;2023-01-29T15:48:04;34.47;;;16.70;;
57800;SDS011;43627;42.728;23.256;2023-01-29T15:50:38;24.38;;;12.07;;
57800;SDS011;43627;42.728;23.256;2023-01-29T15:53:17;27.92;;;13.63;;
57800;SDS011;43627;42.728;23.256;2023-01-29T15:55:46;29.98;;;13.40;;
57800;SDS011;43627;42.728;23.256;2023-01-29T15:58:14;30.52;;;13.40;;
57800;SDS011;43627;42.728;23.256;2023-01-29T16:00:53;25.08;;;12.80;;
57800;SDS011;43627;42.728;23.256;2023-01-29T16:03:22;28.05;;;14.35;;
57800;SDS011;43627;42.728;23.256;2023-01-29T16:05:50;27.67;;;13.38;;
57800;SDS011;43627;42.728;23.256;2023-01-29T16:08:17;24.27;;;12.77;;
57800;SDS011;43627;42.728;23.256;2023-01-29T16:10:48;27.63;;;13.75;;
57800;SDS011;43627;42.728;23.256;2023-01-29T16:13:24;31.40;;;13.98;;
57800;SDS011;43627;42.728;23.256;2023-01-29T16:15:58;28.60;;;12.40;;
57800;SDS011;43627;42.728;23.256;2023-01-29T16:18:37;28.52;;;13.98;;
57800;SDS011;43627;42.728;23.256;2023-01-29T16:24:07;29.60;;;13.00;;
57800;SDS011;43627;42.728;23.256;2023-01-29T16:26:39;25.35;;;12.52;;
57800;SDS011;43627;42.728;23.256;2023-01-29T16:29:10;28.33;;;12.82;;
57800;SDS011;43627;42.728;23.256;2023-01-29T16:31:38;34.40;;;13.88;;
57800;SDS011;43627;42.728;23.256;2023-01-29T16:34:21;30.90;;;14.13;;
57800;SDS011;43627;42.728;23.256;2023-01-29T16:36:52;29.38;;;14.25;;
57800;SDS011;43627;42.728;23.256;2023-01-29T16:39:21;31.85;;;14.23;;
57800;SDS011;43627;42.728;23.256;2023-01-29T16:44:39;33.80;;;15.45;;
57800;SDS011;43627;42.728;23.256;2023-01-29T16:47:11;27.65;;;13.27;;
57800;SDS011;43627;42.728;23.256;2023-01-29T16:49:57;30.70;;;15.02;;
57800;SDS011;43627;42.728;23.256;2023-01-29T16:52:29;30.52;;;15.32;;
57800;SDS011;43627;42.728;23.256;2023-01-29T16:54:58;27.95;;;13.63;;
57800;SDS011;43627;42.728;23.256;2023-01-29T16:57:38;30.73;;;14.20;;
57800;SDS011;43627;42.728;23.256;2023-01-29T17:00:06;30.13;;;14.15;;
57800;SDS011;43627;42.728;23.256;2023-01-29T17:02:43;29.15;;;14.82;;
57800;SDS011;43627;42.728;23.256;2023-01-29T17:05:16;32.35;;;14.65;;
57800;SDS011;43627;42.728;23.256;2023-01-29T17:07:48;35.40;;;16.08;;
57800;SDS011;43627;42.728;23.256;2023-01-29T17:10:19;31.55;;;15.27;;
57800;SDS011;43627;42.728;23.256;2023-01-29T17:12:50;35.78;;;15.20;;
57800;SDS011;43627;42.728;23.256;2023-01-29T17:18:17;29.75;;;14.82;;
57800;SDS011;43627;42.728;23.256;2023-01-29T17:20:48;33.92;;;15.38;;
57800;SDS011;43627;42.728;23.256;2023-01-29T17:23:15;35.83;;;14.73;;
57800;SDS011;43627;42.728;23.256;2023-01-29T17:25:42;35.35;;;15.85;;
57800;SDS011;43627;42.728;23.256;2023-01-29T17:28:11;33.40;;;13.93;;
57800;SDS011;43627;42.728;23.256;2023-01-29T17:30:39;30.92;;;16.35;;
57800;SDS011;43627;42.728;23.256;2023-01-29T17:33:14;38.72;;;16.40;;
57800;SDS011;43627;42.728;23.256;2023-01-29T17:35:43;32.83;;;15.55;;
57800;SDS011;43627;42.728;23.256;2023-01-29T17:38:11;35.60;;;17.02;;
57800;SDS011;43627;42.728;23.256;2023-01-29T17:43:37;30.13;;;13.88;;
57800;SDS011;43627;42.728;23.256;2023-01-29T17:46:03;35.03;;;14.48;;
57800;SDS011;43627;42.728;23.256;2023-01-29T17:48:31;28.85;;;13.65;;
57800;SDS011;43627;42.728;23.256;2023-01-29T17:50:59;34.15;;;15.68;;